Pagrindinis puslapis
METAR-TAF:

METAR-TAF

Oro uostai :

Batam, Indonezija

platuma: 01-07-15N, ilguma: 104-07-07E, Aukštis: 38 m

Dabartinis oras

Ataskaita buvo paskelbta 10 minutes, ne 12:00 UTC
Ramus vėjas
Temperatūra 28°C
Drėgmė 79%
Slėgis 1012 hPa
Matomumas 10 km arba daugiau
Mažai debesys ne aukštis 1400 ft

METAR: WIDD 151200Z 00000KT 9999 FEW014 28/24 Q1012 NOSIG

Laikas: 19:10 (12:10 UTC)

Prognozė

Ataskaita buvo paskelbta 1 valandą ir 10 minutes, ne 11:00 UTC
Prognozė galioja nuo 15 metu 12 UTC su 16 metu 12 UTC
Vėjas 3 kt iš Vakarų/Šiaurės Vakarų
Matomumas: 9000 m
Išsisklaidę debesys ne aukštis 1400 ft
Tikimybė 30% :
Laikinai
nuo 15 metu 16 UTC su 15 metu 20 UTC
Matomumas: 5000 m
Mažai debesys ne aukštis 1400 ft, Liūtiniai kamuoliniai debesys.
perkūnija, lietus

TAF: WIDD 151100Z 1512/1612 30003KT 9000 SCT014 PROB30 TEMPO 1516/1520 5000 -TSRA FEW014CB

Orai ataskaitas ir orų prognozės (METAR, TAF).

turimą stotys yra geltonos ir raudonos taškus žemėlapyje.

Perkelti pele per norėdami pamatyti stoties vardą.

Tada spustelėkite, norėdami matyti oro stebėjimo ir prognozės.

Norėdami pakeisti žemėlapį: spustelėkite ant žalios mygtukų su juodo kryžiaus žemyn,; žalią mygtuką su brūkšneliu, jei norite nutolinti; arba žalių rodyklių gretimoms žemėlapius.


METAR-TAF: